Time;durP1;ratioP1;P1;durP2;ratioP2;P2;SDS_P1;SDS_P2;PMS_P1;PMS_P2;Temp;Humidity;BMP_temperature;BMP_pressure;BME280_temperature;BME280_humidity;BME280_pressure;Samples;Min_cycle;Max_cycle;Signal;HPM_P1;HPM_P2
2022/03/08 00:01:56;;;;;;;14.77;8.90;;;;;;;;;;5030556;28;20409;-71
2022/03/08 00:04:25;;;;;;;15.50;8.65;;;;;;;;;;5032561;28;20134;-72
2022/03/08 00:06:53;;;;;;;16.08;9.07;;;;;;;;;;5030969;28;20060;-73
2022/03/08 00:09:20;;;;;;;14.15;7.38;;;;;;;;;;5032483;28;20439;-72
2022/03/08 00:11:48;;;;;;;12.77;7.40;;;;;;;;;;5033793;28;20061;-71
2022/03/08 00:14:16;;;;;;;14.60;8.95;;;;;;;;;;5032815;28;20045;-74
2022/03/08 00:16:45;;;;;;;16.33;8.43;;;;;;;;;;5033126;28;20095;-72
2022/03/08 00:19:13;;;;;;;16.73;7.95;;;;;;;;;;5030544;28;20040;-74
2022/03/08 00:21:41;;;;;;;15.63;9.00;;;;;;;;;;5033226;28;20057;-73
2022/03/08 00:24:09;;;;;;;15.48;8.13;;;;;;;;;;5029173;28;20049;-73
2022/03/08 00:26:38;;;;;;;16.13;8.80;;;;;;;;;;5029730;28;20080;-72
2022/03/08 00:29:05;;;;;;;14.63;6.97;;;;;;;;;;5029507;28;20130;-71
2022/03/08 00:31:33;;;;;;;15.32;8.48;;;;;;;;;;5031319;28;20056;-74
2022/03/08 00:34:03;;;;;;;16.58;8.43;;;;;;;;;;5031085;28;20326;-72
2022/03/08 00:36:34;;;;;;;16.07;8.17;;;;;;;;;;5029786;28;20132;-71
2022/03/08 00:39:01;;;;;;;18.63;8.93;;;;;;;;;;5029333;28;20458;-71
2022/03/08 00:41:29;;;;;;;13.90;7.88;;;;;;;;;;5032314;28;20049;-72
2022/03/08 00:43:56;;;;;;;14.88;7.93;;;;;;;;;;5029376;28;20045;-73
2022/03/08 00:46:24;;;;;;;17.90;8.27;;;;;;;;;;5033476;28;20081;-72
2022/03/08 00:48:51;;;;;;;13.52;7.82;;;;;;;;;;5029956;28;20163;-72
2022/03/08 00:51:20;;;;;;;15.35;8.45;;;;;;;;;;5029834;28;20303;-72
2022/03/08 00:53:49;;;;;;;14.00;8.07;;;;;;;;;;5031894;28;20149;-73
2022/03/08 00:56:17;;;;;;;14.43;8.60;;;;;;;;;;5032053;28;20486;-73
2022/03/08 00:58:47;;;;;;;14.75;8.52;;;;;;;;;;5033489;28;20080;-72
2022/03/08 01:01:14;;;;;;;14.30;7.93;;;;;;;;;;5033572;28;20493;-71
2022/03/08 01:03:43;;;;;;;14.18;7.10;;;;;;;;;;5030607;28;20477;-72
2022/03/08 01:06:12;;;;;;;13.40;7.55;;;;;;;;;;5031320;28;20122;-73
2022/03/08 01:08:41;;;;;;;17.70;8.57;;;;;;;;;;5032390;28;20099;-72
2022/03/08 01:11:09;;;;;;;15.13;8.23;;;;;;;;;;5030142;28;20061;-72
2022/03/08 01:13:37;;;;;;;16.27;7.72;;;;;;;;;;5033823;28;20072;-72
2022/03/08 01:16:05;;;;;;;12.70;7.55;;;;;;;;;;5034637;28;20139;-73
2022/03/08 01:18:32;;;;;;;15.00;7.55;;;;;;;;;;5032915;28;20052;-73
2022/03/08 01:21:00;;;;;;;15.63;7.88;;;;;;;;;;5034640;28;20485;-74
2022/03/08 01:23:27;;;;;;;14.52;7.47;;;;;;;;;;5034705;28;20063;-72
2022/03/08 01:25:57;;;;;;;18.65;8.90;;;;;;;;;;5034721;28;20358;-73
2022/03/08 01:28:25;;;;;;;13.05;7.25;;;;;;;;;;5033583;28;20053;-72
2022/03/08 01:30:55;;;;;;;13.55;7.13;;;;;;;;;;5031161;28;20061;-72
2022/03/08 01:33:23;;;;;;;12.23;7.60;;;;;;;;;;5034449;28;20080;-73
2022/03/08 01:35:50;;;;;;;18.73;8.02;;;;;;;;;;5035601;28;20052;-73
2022/03/08 01:38:18;;;;;;;12.55;6.95;;;;;;;;;;5032758;28;20775;-73
2022/03/08 01:40:46;;;;;;;14.48;7.78;;;;;;;;;;5034791;28;20123;-73
2022/03/08 01:43:15;;;;;;;12.05;6.53;;;;;;;;;;5032458;28;20099;-73
2022/03/08 01:45:43;;;;;;;13.27;6.93;;;;;;;;;;5034064;28;20045;-73
2022/03/08 01:48:11;;;;;;;15.68;7.88;;;;;;;;;;5030427;28;20048;-73
2022/03/08 01:50:39;;;;;;;17.60;8.80;;;;;;;;;;5035038;28;20091;-73
2022/03/08 01:53:07;;;;;;;14.15;7.88;;;;;;;;;;5029451;28;20140;-73
2022/03/08 01:55:35;;;;;;;14.52;7.05;;;;;;;;;;5031723;28;20061;-73
2022/03/08 01:58:03;;;;;;;13.70;7.47;;;;;;;;;;5030473;28;20431;-74
2022/03/08 02:00:32;;;;;;;14.32;7.70;;;;;;;;;;5033069;28;20132;-74
2022/03/08 02:03:00;;;;;;;12.73;7.05;;;;;;;;;;5033505;28;20049;-73
2022/03/08 02:05:29;;;;;;;15.70;6.78;;;;;;;;;;5034394;28;20433;-73
2022/03/08 02:07:56;;;;;;;15.30;7.05;;;;;;;;;;5031483;28;20549;-73
2022/03/08 02:10:24;;;;;;;11.05;6.38;;;;;;;;;;5032512;28;20088;-73
2022/03/08 02:12:51;;;;;;;16.70;5.65;;;;;;;;;;5033096;28;20071;-73
2022/03/08 02:15:21;;;;;;;11.10;6.05;;;;;;;;;;5032736;28;20077;-73
2022/03/08 02:17:50;;;;;;;11.48;6.10;;;;;;;;;;5034065;28;20297;-73
2022/03/08 02:20:19;;;;;;;12.98;6.43;;;;;;;;;;5031790;28;20049;-73
2022/03/08 02:22:49;;;;;;;14.45;6.68;;;;;;;;;;5033940;28;20113;-73
2022/03/08 02:25:17;;;;;;;10.90;6.38;;;;;;;;;;5030680;28;20045;-73
2022/03/08 02:27:46;;;;;;;12.98;6.65;;;;;;;;;;5032459;28;20169;-73
2022/03/08 02:30:21;;;;;;;12.93;6.45;;;;;;;;;;5030929;28;20141;-73
2022/03/08 02:32:49;;;;;;;8.80;4.97;;;;;;;;;;5030999;28;20260;-73
2022/03/08 02:35:19;;;;;;;7.80;4.65;;;;;;;;;;5034497;28;20053;-73
2022/03/08 02:37:49;;;;;;;11.68;6.80;;;;;;;;;;5030439;28;20040;-72
2022/03/08 02:40:18;;;;;;;10.02;5.00;;;;;;;;;;5029737;28;20060;-72
2022/03/08 02:42:46;;;;;;;12.82;6.57;;;;;;;;;;5032782;28;20144;-72
2022/03/08 02:45:15;;;;;;;12.02;5.88;;;;;;;;;;5033216;28;20060;-73
2022/03/08 02:47:43;;;;;;;12.60;6.65;;;;;;;;;;5033825;28;20106;-73
2022/03/08 02:50:12;;;;;;;10.95;5.60;;;;;;;;;;5030936;28;20132;-73
2022/03/08 02:52:41;;;;;;;10.18;6.30;;;;;;;;;;5027054;28;20531;-73
2022/03/08 02:55:12;;;;;;;9.40;5.47;;;;;;;;;;5033488;28;20661;-73
2022/03/08 02:57:40;;;;;;;11.70;5.97;;;;;;;;;;5034670;28;20171;-73
2022/03/08 03:00:09;;;;;;;25.63;6.80;;;;;;;;;;5033823;28;20059;-74
2022/03/08 03:03:00;;;;;;;10.23;6.00;;;;;;;;;;5031778;28;20558;-74
2022/03/08 03:05:28;;;;;;;12.65;7.13;;;;;;;;;;5030677;28;20087;-73
2022/03/08 03:07:57;;;;;;;11.75;5.95;;;;;;;;;;5029114;28;20049;-74
2022/03/08 03:10:26;;;;;;;10.07;5.68;;;;;;;;;;5029563;28;20174;-73
2022/03/08 03:12:55;;;;;;;11.57;6.18;;;;;;;;;;5033175;28;20057;-73
2022/03/08 03:15:24;;;;;;;10.43;6.00;;;;;;;;;;5029156;28;20052;-75
2022/03/08 03:17:52;;;;;;;7.97;5.07;;;;;;;;;;5029747;28;20053;-72
2022/03/08 03:20:21;;;;;;;12.30;6.32;;;;;;;;;;5028242;28;20049;-72
2022/03/08 03:22:49;;;;;;;10.52;5.82;;;;;;;;;;5032921;28;20493;-73
2022/03/08 03:25:18;;;;;;;10.57;5.82;;;;;;;;;;5030033;28;20053;-73
2022/03/08 03:27:47;;;;;;;14.18;6.00;;;;;;;;;;5033628;28;20182;-73
2022/03/08 03:30:16;;;;;;;8.88;5.20;;;;;;;;;;5033522;28;20697;-74
2022/03/08 03:33:08;;;;;;;10.43;6.22;;;;;;;;;;5033157;28;20146;-73
2022/03/08 03:35:39;;;;;;;10.02;5.72;;;;;;;;;;5029468;28;20536;-73
2022/03/08 03:38:07;;;;;;;12.02;6.00;;;;;;;;;;5032544;28;20366;-72
2022/03/08 03:40:34;;;;;;;12.45;6.38;;;;;;;;;;5031904;28;20622;-73
2022/03/08 03:43:04;;;;;;;11.93;5.80;;;;;;;;;;5029564;28;20045;-72
2022/03/08 03:45:32;;;;;;;11.93;5.13;;;;;;;;;;5029885;28;20306;-73
2022/03/08 03:47:59;;;;;;;9.38;5.78;;;;;;;;;;5030603;28;20099;-73
2022/03/08 03:50:27;;;;;;;11.15;5.65;;;;;;;;;;5032166;28;20400;-73
2022/03/08 03:52:58;;;;;;;11.75;6.22;;;;;;;;;;5024944;28;20152;-73
2022/03/08 03:55:26;;;;;;;10.85;6.13;;;;;;;;;;5030236;28;20045;-72
2022/03/08 03:57:53;;;;;;;7.55;4.88;;;;;;;;;;5030909;28;20057;-73
2022/03/08 04:00:22;;;;;;;9.98;5.93;;;;;;;;;;5032861;28;20057;-72
2022/03/08 04:02:50;;;;;;;11.20;6.25;;;;;;;;;;5027365;28;20061;-72
2022/03/08 04:05:19;;;;;;;13.68;5.75;;;;;;;;;;5031826;28;20063;-73
2022/03/08 04:07:47;;;;;;;11.48;6.05;;;;;;;;;;5032404;28;20162;-73
2022/03/08 04:10:15;;;;;;;10.25;6.18;;;;;;;;;;5029250;28;20049;-73
2022/03/08 04:12:45;;;;;;;13.68;6.40;;;;;;;;;;5031402;28;20053;-72
2022/03/08 04:15:14;;;;;;;11.50;6.53;;;;;;;;;;5032524;28;21091;-72
2022/03/08 04:17:43;;;;;;;13.15;5.95;;;;;;;;;;5030603;28;20119;-74
2022/03/08 04:20:11;;;;;;;13.70;5.95;;;;;;;;;;5030992;28;20126;-72
2022/03/08 04:22:39;;;;;;;9.40;5.70;;;;;;;;;;5028646;28;20045;-75
2022/03/08 04:25:09;;;;;;;11.60;6.38;;;;;;;;;;5031954;28;20081;-74
2022/03/08 04:27:37;;;;;;;11.70;6.25;;;;;;;;;;5034003;28;20053;-73
2022/03/08 04:30:06;;;;;;;15.93;6.82;;;;;;;;;;5032631;28;20060;-73
2022/03/08 04:32:33;;;;;;;10.95;6.00;;;;;;;;;;5038465;28;20037;-73
2022/03/08 04:35:03;;;;;;;10.52;5.50;;;;;;;;;;5030348;28;20053;-73
2022/03/08 04:37:31;;;;;;;13.98;6.93;;;;;;;;;;5037994;28;20045;-73
2022/03/08 04:39:59;;;;;;;13.20;6.97;;;;;;;;;;5033079;28;20057;-74
2022/03/08 04:42:26;;;;;;;11.75;6.15;;;;;;;;;;5034582;28;20132;-73
2022/03/08 04:44:54;;;;;;;12.35;6.60;;;;;;;;;;5033680;28;20667;-73
2022/03/08 04:47:22;;;;;;;11.68;6.13;;;;;;;;;;5036685;28;20057;-74
2022/03/08 04:49:50;;;;;;;14.68;6.70;;;;;;;;;;5034158;28;20135;-73
2022/03/08 04:52:19;;;;;;;12.60;6.55;;;;;;;;;;5030154;28;20055;-73
2022/03/08 04:54:47;;;;;;;7.88;5.13;;;;;;;;;;5033949;28;20272;-73
2022/03/08 04:57:14;;;;;;;10.85;6.18;;;;;;;;;;5033492;28;20270;-73
2022/03/08 04:59:42;;;;;;;9.38;5.72;;;;;;;;;;5029535;28;20491;-73
2022/03/08 05:02:09;;;;;;;11.30;6.13;;;;;;;;;;5034993;28;20140;-73
2022/03/08 05:04:38;;;;;;;14.18;6.90;;;;;;;;;;5032691;28;20045;-73
2022/03/08 05:07:06;;;;;;;11.35;7.00;;;;;;;;;;5035342;28;20568;-73
2022/03/08 05:09:35;;;;;;;11.80;6.82;;;;;;;;;;5033502;28;20489;-75
2022/03/08 05:12:04;;;;;;;12.88;6.85;;;;;;;;;;5034975;28;20057;-72
2022/03/08 05:14:32;;;;;;;13.00;6.93;;;;;;;;;;5033204;28;20057;-73
2022/03/08 05:16:59;;;;;;;13.02;6.35;;;;;;;;;;5034765;28;20445;-73
2022/03/08 05:19:30;;;;;;;15.68;7.53;;;;;;;;;;5033794;28;20053;-74
2022/03/08 05:21:57;;;;;;;14.27;6.60;;;;;;;;;;5036004;28;20059;-73
2022/03/08 05:24:25;;;;;;;12.05;6.50;;;;;;;;;;5033811;28;20115;-74
2022/03/08 05:26:54;;;;;;;12.48;6.13;;;;;;;;;;5033174;28;20128;-74
2022/03/08 05:29:22;;;;;;;11.68;6.32;;;;;;;;;;5031665;28;20460;-73
2022/03/08 05:31:50;;;;;;;14.27;6.85;;;;;;;;;;5032764;28;20084;-73
2022/03/08 05:34:20;;;;;;;13.63;6.85;;;;;;;;;;5031324;28;20053;-74
2022/03/08 05:36:48;;;;;;;13.55;6.68;;;;;;;;;;5033748;28;20060;-75
2022/03/08 05:39:18;;;;;;;13.38;7.10;;;;;;;;;;5033105;28;20087;-74
2022/03/08 05:41:45;;;;;;;10.70;6.43;;;;;;;;;;5031938;28;20051;-74
2022/03/08 05:44:15;;;;;;;16.40;7.07;;;;;;;;;;5035307;28;20079;-73
2022/03/08 05:47:07;;;;;;;11.45;6.15;;;;;;;;;;5034098;28;20432;-73
2022/03/08 05:49:35;;;;;;;12.43;7.18;;;;;;;;;;5031297;28;20045;-73
2022/03/08 05:52:02;;;;;;;11.45;6.03;;;;;;;;;;5033255;28;20631;-73
2022/03/08 05:54:30;;;;;;;11.27;6.82;;;;;;;;;;5031742;28;20087;-73
2022/03/08 05:56:58;;;;;;;13.70;6.55;;;;;;;;;;5032138;28;20096;-73
2022/03/08 05:59:27;;;;;;;11.63;6.03;;;;;;;;;;5033908;28;20423;-73
2022/03/08 06:01:54;;;;;;;13.18;7.07;;;;;;;;;;5033918;28;20071;-74
2022/03/08 06:04:22;;;;;;;10.75;4.90;;;;;;;;;;5030693;28;20075;-74
2022/03/08 06:06:52;;;;;;;15.93;7.07;;;;;;;;;;5037187;28;20156;-73
2022/03/08 06:09:20;;;;;;;11.25;6.32;;;;;;;;;;5030869;28;20057;-75
2022/03/08 06:11:48;;;;;;;13.48;6.65;;;;;;;;;;5034114;28;20073;-74
2022/03/08 06:14:17;;;;;;;10.95;5.20;;;;;;;;;;5035275;28;20111;-74
2022/03/08 06:16:47;;;;;;;7.78;4.50;;;;;;;;;;5034247;28;20108;-73
2022/03/08 06:19:15;;;;;;;12.55;6.30;;;;;;;;;;5033108;28;20065;-74
2022/03/08 06:21:42;;;;;;;13.38;6.35;;;;;;;;;;5035402;28;20052;-74
2022/03/08 06:24:11;;;;;;;7.07;4.85;;;;;;;;;;5037274;28;20119;-74
2022/03/08 06:26:38;;;;;;;9.77;5.78;;;;;;;;;;5033950;28;20175;-74
2022/03/08 06:29:12;;;;;;;9.75;5.50;;;;;;;;;;5035605;28;20124;-75
2022/03/08 06:31:39;;;;;;;11.63;6.28;;;;;;;;;;5032240;28;20115;-74
2022/03/08 06:34:08;;;;;;;9.32;5.15;;;;;;;;;;5032233;28;20099;-74
2022/03/08 06:36:36;;;;;;;14.38;6.63;;;;;;;;;;5032803;28;20452;-74
2022/03/08 06:39:04;;;;;;;8.50;5.18;;;;;;;;;;5033607;28;20135;-74
2022/03/08 06:41:32;;;;;;;11.13;6.45;;;;;;;;;;5032870;28;20052;-74
2022/03/08 06:44:00;;;;;;;11.27;7.03;;;;;;;;;;5033137;28;20069;-75
2022/03/08 06:46:36;;;;;;;11.23;5.47;;;;;;;;;;5033986;28;20052;-74
2022/03/08 06:49:04;;;;;;;16.55;6.47;;;;;;;;;;5032080;28;20045;-74
2022/03/08 06:51:33;;;;;;;11.18;5.80;;;;;;;;;;5036402;28;20056;-74
2022/03/08 06:54:02;;;;;;;14.15;6.72;;;;;;;;;;5029515;28;20114;-74
2022/03/08 06:56:29;;;;;;;12.95;6.97;;;;;;;;;;5035338;28;20077;-73
2022/03/08 06:58:57;;;;;;;10.93;4.80;;;;;;;;;;5030564;28;20437;-74
2022/03/08 07:01:24;;;;;;;11.65;5.93;;;;;;;;;;5031723;28;20057;-73
2022/03/08 07:03:52;;;;;;;13.93;6.88;;;;;;;;;;5028437;28;20087;-72
2022/03/08 07:06:21;;;;;;;11.25;6.25;;;;;;;;;;5031413;28;20076;-75
2022/03/08 07:08:53;;;;;;;8.65;4.88;;;;;;;;;;5030903;28;20182;-75
2022/03/08 07:11:22;;;;;;;13.23;7.15;;;;;;;;;;5033210;28;20063;-75
2022/03/08 07:13:54;;;;;;;9.73;5.78;;;;;;;;;;5032560;28;20053;-75
2022/03/08 07:16:24;;;;;;;10.02;5.43;;;;;;;;;;5031591;28;20561;-73
2022/03/08 07:18:52;;;;;;;10.55;5.40;;;;;;;;;;5030526;28;20063;-73
2022/03/08 07:21:20;;;;;;;13.43;6.25;;;;;;;;;;5033539;28;20073;-74
2022/03/08 07:23:49;;;;;;;9.85;5.30;;;;;;;;;;5033570;28;20443;-73
2022/03/08 07:26:17;;;;;;;11.85;6.53;;;;;;;;;;5031883;28;20052;-74
2022/03/08 07:28:45;;;;;;;11.57;6.00;;;;;;;;;;5028038;28;20463;-74
2022/03/08 07:31:13;;;;;;;13.60;7.47;;;;;;;;;;5028749;28;20059;-74
2022/03/08 07:33:43;;;;;;;11.85;6.68;;;;;;;;;;5030223;28;20274;-75
2022/03/08 07:36:10;;;;;;;12.98;6.93;;;;;;;;;;5026744;28;20485;-73
2022/03/08 07:38:38;;;;;;;12.80;7.15;;;;;;;;;;5028019;28;20081;-73
2022/03/08 07:41:07;;;;;;;9.73;5.47;;;;;;;;;;5031134;28;20084;-74
2022/03/08 07:44:01;;;;;;;13.10;6.50;;;;;;;;;;5028781;28;20211;-74
2022/03/08 07:46:28;;;;;;;8.23;5.07;;;;;;;;;;5028670;28;20076;-74
2022/03/08 07:48:57;;;;;;;9.27;5.13;;;;;;;;;;5026712;28;20565;-74
2022/03/08 07:51:44;;;;;;;11.50;6.97;;;;;;;;;;5027652;28;20133;-74
2022/03/08 07:54:12;;;;;;;10.88;6.55;;;;;;;;;;5028853;28;20045;-76
2022/03/08 07:56:41;;;;;;;14.80;6.97;;;;;;;;;;5033748;28;20267;-73
2022/03/08 07:59:09;;;;;;;10.82;6.97;;;;;;;;;;5030412;28;20046;-75
2022/03/08 08:01:36;;;;;;;13.82;6.72;;;;;;;;;;5026565;28;20085;-73
2022/03/08 08:04:04;;;;;;;14.32;6.95;;;;;;;;;;5029889;28;20045;-73
2022/03/08 08:06:56;;;;;;;10.05;6.15;;;;;;;;;;5029364;28;21271;-73
2022/03/08 08:09:24;;;;;;;13.35;7.05;;;;;;;;;;5028816;28;20059;-74
2022/03/08 08:11:53;;;;;;;13.50;7.53;;;;;;;;;;5028182;28;20088;-77
2022/03/08 08:14:21;;;;;;;11.35;6.88;;;;;;;;;;5024534;28;20053;-74
2022/03/08 08:16:49;;;;;;;12.15;6.20;;;;;;;;;;5030180;28;20090;-74
2022/03/08 08:19:17;;;;;;;11.55;6.28;;;;;;;;;;5029946;28;20077;-75
2022/03/08 08:21:46;;;;;;;12.63;6.75;;;;;;;;;;5029201;28;20057;-73
2022/03/08 08:24:14;;;;;;;11.77;6.65;;;;;;;;;;5028203;28;20072;-74
2022/03/08 08:26:41;;;;;;;9.25;5.43;;;;;;;;;;5027856;28;20557;-75
2022/03/08 08:29:11;;;;;;;11.48;6.45;;;;;;;;;;5030245;28;20373;-73
2022/03/08 08:31:39;;;;;;;13.90;7.03;;;;;;;;;;5029474;28;20056;-74
2022/03/08 08:34:07;;;;;;;11.32;6.43;;;;;;;;;;5027020;28;20045;-74
2022/03/08 08:36:35;;;;;;;8.30;5.47;;;;;;;;;;5028090;28;20560;-73
2022/03/08 08:39:03;;;;;;;10.55;6.75;;;;;;;;;;5032336;28;20057;-73
2022/03/08 08:41:31;;;;;;;10.05;5.28;;;;;;;;;;5030926;28;20064;-74
2022/03/08 08:43:59;;;;;;;8.05;4.05;;;;;;;;;;5025621;28;20114;-74
2022/03/08 08:46:32;;;;;;;12.82;7.13;;;;;;;;;;5030222;28;20060;-74
2022/03/08 08:49:00;;;;;;;12.85;7.25;;;;;;;;;;5025692;28;20053;-74
2022/03/08 08:51:27;;;;;;;16.58;7.80;;;;;;;;;;5028005;28;20057;-75
2022/03/08 08:53:55;;;;;;;13.40;7.22;;;;;;;;;;5025838;28;20130;-74
2022/03/08 08:56:23;;;;;;;11.73;5.80;;;;;;;;;;5024644;28;20080;-75
2022/03/08 08:58:52;;;;;;;9.02;4.88;;;;;;;;;;5026307;28;20053;-74
2022/03/08 09:01:19;;;;;;;10.55;5.80;;;;;;;;;;5028510;28;20119;-75
2022/03/08 09:03:49;;;;;;;10.55;5.35;;;;;;;;;;5022267;28;20121;-75
2022/03/08 09:06:17;;;;;;;10.95;6.32;;;;;;;;;;5019157;28;20053;-75
2022/03/08 09:08:46;;;;;;;14.15;5.70;;;;;;;;;;5012512;28;20231;-74
2022/03/08 09:11:14;;;;;;;12.40;6.45;;;;;;;;;;5018384;28;20332;-74
2022/03/08 09:13:42;;;;;;;11.27;6.97;;;;;;;;;;5021815;28;20540;-75
2022/03/08 09:16:10;;;;;;;9.65;5.38;;;;;;;;;;5024060;28;20057;-75
2022/03/08 09:18:38;;;;;;;9.25;5.55;;;;;;;;;;5023579;28;20049;-74
2022/03/08 09:21:07;;;;;;;13.70;6.43;;;;;;;;;;5025536;28;20060;-75
2022/03/08 09:23:36;;;;;;;14.73;7.97;;;;;;;;;;5021948;28;20053;-74
2022/03/08 09:26:04;;;;;;;11.25;6.22;;;;;;;;;;5020591;28;20136;-75
2022/03/08 09:28:55;;;;;;;13.15;7.18;;;;;;;;;;5020475;28;20151;-74
2022/03/08 09:31:23;;;;;;;12.38;6.45;;;;;;;;;;5022579;28;20564;-74
2022/03/08 09:33:52;;;;;;;11.07;7.28;;;;;;;;;;5023636;28;20345;-76
2022/03/08 09:36:22;;;;;;;12.95;7.15;;;;;;;;;;5022130;28;20080;-75
2022/03/08 09:38:51;;;;;;;12.48;6.55;;;;;;;;;;5022912;28;20179;-77
2022/03/08 09:41:19;;;;;;;12.73;7.15;;;;;;;;;;5019829;28;20418;-74
2022/03/08 09:43:47;;;;;;;12.70;7.15;;;;;;;;;;5024086;28;20061;-77
2022/03/08 09:46:15;;;;;;;11.85;7.05;;;;;;;;;;5020437;28;20071;-74
2022/03/08 09:48:44;;;;;;;11.75;7.10;;;;;;;;;;5021784;28;20072;-74
2022/03/08 09:51:13;;;;;;;13.52;6.57;;;;;;;;;;5021670;28;20080;-77
2022/03/08 09:53:44;;;;;;;9.55;5.63;;;;;;;;;;5025312;28;20413;-77
2022/03/08 09:56:11;;;;;;;11.20;7.07;;;;;;;;;;5025629;28;20056;-76
2022/03/08 09:58:40;;;;;;;12.40;7.55;;;;;;;;;;5025884;28;20141;-75
2022/03/08 10:01:09;;;;;;;13.25;7.68;;;;;;;;;;5022937;28;20847;-76
2022/03/08 10:03:39;;;;;;;12.50;7.25;;;;;;;;;;5025667;28;20367;-75
2022/03/08 10:06:08;;;;;;;13.05;7.55;;;;;;;;;;5025549;28;20060;-75
2022/03/08 10:08:36;;;;;;;12.43;7.13;;;;;;;;;;5024230;28;20353;-75
2022/03/08 10:11:07;;;;;;;14.32;7.55;;;;;;;;;;5022266;28;20053;-75
2022/03/08 10:13:47;;;;;;;14.02;7.18;;;;;;;;;;5024349;28;20045;-74
2022/03/08 10:16:16;;;;;;;14.05;7.50;;;;;;;;;;5022482;28;20264;-74
2022/03/08 10:19:09;;;;;;;12.35;7.95;;;;;;;;;;5020112;28;20497;-73
2022/03/08 10:21:37;;;;;;;13.05;7.90;;;;;;;;;;5026923;28;20053;-75
2022/03/08 10:24:08;;;;;;;11.85;7.00;;;;;;;;;;5022934;28;20057;-73
2022/03/08 10:26:45;;;;;;;13.43;7.22;;;;;;;;;;5022571;28;20057;-73
2022/03/08 10:29:22;;;;;;;13.73;7.18;;;;;;;;;;5024742;28;20055;-74
2022/03/08 10:32:16;;;;;;;9.98;6.13;;;;;;;;;;5023844;28;20223;-74
2022/03/08 10:34:45;;;;;;;11.20;7.20;;;;;;;;;;5024269;28;20077;-73
2022/03/08 10:37:15;;;;;;;12.25;6.80;;;;;;;;;;5023484;28;20121;-74
2022/03/08 10:39:50;;;;;;;13.18;6.43;;;;;;;;;;5019092;28;20064;-73
2022/03/08 10:42:25;;;;;;;14.52;6.15;;;;;;;;;;5023044;28;20121;-74
2022/03/08 10:44:53;;;;;;;13.75;7.68;;;;;;;;;;5019420;28;20080;-74
2022/03/08 10:47:21;;;;;;;12.18;6.22;;;;;;;;;;5021511;28;20096;-74
2022/03/08 10:49:51;;;;;;;12.45;7.55;;;;;;;;;;5023493;28;20262;-75
2022/03/08 10:52:30;;;;;;;11.87;7.40;;;;;;;;;;5017926;28;21422;-75
2022/03/08 10:55:08;;;;;;;14.13;6.97;;;;;;;;;;5021489;28;20310;-74
2022/03/08 10:57:38;;;;;;;11.05;6.97;;;;;;;;;;5023032;28;20240;-78
2022/03/08 11:00:16;;;;;;;10.32;5.93;;;;;;;;;;5018867;28;20056;-73
2022/03/08 11:02:47;;;;;;;11.85;7.68;;;;;;;;;;5020402;28;20084;-75
2022/03/08 11:05:16;;;;;;;15.13;8.45;;;;;;;;;;5021483;28;20057;-75
2022/03/08 11:08:08;;;;;;;12.50;7.00;;;;;;;;;;5020445;28;20106;-76
2022/03/08 11:11:03;;;;;;;13.02;7.63;;;;;;;;;;5019690;28;20199;-74
2022/03/08 11:13:56;;;;;;;11.68;7.75;;;;;;;;;;5022952;28;20259;-75
2022/03/08 11:16:26;;;;;;;13.35;7.43;;;;;;;;;;5018999;28;21485;-73
2022/03/08 11:18:54;;;;;;;12.38;7.57;;;;;;;;;;5022258;28;20049;-75
2022/03/08 11:21:23;;;;;;;14.10;7.72;;;;;;;;;;5017601;28;20061;-74
2022/03/08 11:23:52;;;;;;;15.70;8.10;;;;;;;;;;5019105;28;20053;-74
2022/03/08 11:26:21;;;;;;;14.15;7.43;;;;;;;;;;5018159;28;20057;-76
2022/03/08 11:28:51;;;;;;;11.80;6.70;;;;;;;;;;5024130;28;20054;-76
2022/03/08 11:31:22;;;;;;;12.18;7.00;;;;;;;;;;5019866;28;20049;-74
2022/03/08 11:33:55;;;;;;;10.45;7.22;;;;;;;;;;5021145;28;20052;-73
2022/03/08 11:36:28;;;;;;;13.52;7.72;;;;;;;;;;5023082;28;20065;-72
2022/03/08 11:39:19;;;;;;;13.88;7.43;;;;;;;;;;5021656;28;20059;-70
2022/03/08 11:41:48;;;;;;;13.65;8.13;;;;;;;;;;5023076;28;20091;-73
2022/03/08 11:44:23;;;;;;;12.15;6.93;;;;;;;;;;5024366;28;20272;-76
2022/03/08 11:47:11;;;;;;;15.45;8.38;;;;;;;;;;5021701;28;20052;-71
2022/03/08 11:49:40;;;;;;;13.70;7.90;;;;;;;;;;5023398;28;20061;-73
2022/03/08 11:52:12;;;;;;;15.13;7.13;;;;;;;;;;5023811;28;20080;-73
2022/03/08 11:54:40;;;;;;;12.70;7.80;;;;;;;;;;5022852;28;20076;-72
2022/03/08 11:57:07;;;;;;;15.07;8.48;;;;;;;;;;5019915;28;20076;-76
2022/03/08 11:59:35;;;;;;;17.92;8.77;;;;;;;;;;5025636;28;20915;-72
2022/03/08 12:02:03;;;;;;;14.60;6.93;;;;;;;;;;5016203;28;20057;-76
2022/03/08 12:04:43;;;;;;;12.98;7.90;;;;;;;;;;5023167;28;20052;-73
2022/03/08 12:07:24;;;;;;;12.50;6.50;;;;;;;;;;5023162;28;20419;-73
2022/03/08 12:10:07;;;;;;;13.77;7.90;;;;;;;;;;5019195;28;20134;-72
2022/03/08 12:12:42;;;;;;;14.63;8.73;;;;;;;;;;5020265;28;20638;-75
2022/03/08 12:15:09;;;;;;;14.75;7.82;;;;;;;;;;5021663;28;20058;-71
2022/03/08 12:17:38;;;;;;;16.50;8.05;;;;;;;;;;5031130;28;20045;-71
2022/03/08 12:20:14;;;;;;;12.70;7.78;;;;;;;;;;5036682;28;20103;-74
2022/03/08 12:22:41;;;;;;;15.07;6.95;;;;;;;;;;5034361;28;20080;-74
2022/03/08 12:25:32;;;;;;;15.68;8.35;;;;;;;;;;5032992;28;20060;-76
2022/03/08 12:28:00;;;;;;;16.27;8.35;;;;;;;;;;5036429;28;20057;-72
2022/03/08 12:30:46;;;;;;;19.60;8.60;;;;;;;;;;5027882;28;20049;-73
2022/03/08 12:33:14;;;;;;;17.08;8.90;;;;;;;;;;5033498;28;20118;-76
2022/03/08 12:35:53;;;;;;;14.90;8.13;;;;;;;;;;5033510;28;20049;-75
2022/03/08 12:38:21;;;;;;;17.20;9.45;;;;;;;;;;5030165;28;20057;-73
2022/03/08 12:41:16;;;;;;;18.13;9.82;;;;;;;;;;5034299;28;20613;-73
2022/03/08 12:43:44;;;;;;;14.55;8.30;;;;;;;;;;5035285;28;20045;-73
2022/03/08 12:46:12;;;;;;;22.38;9.98;;;;;;;;;;5030316;28;20132;-72
2022/03/08 12:48:44;;;;;;;17.20;9.43;;;;;;;;;;5031755;28;20103;-71
2022/03/08 12:51:14;;;;;;;20.90;11.02;;;;;;;;;;5031254;28;20045;-75
2022/03/08 12:53:44;;;;;;;16.77;9.40;;;;;;;;;;5027347;28;20109;-72
2022/03/08 12:56:12;;;;;;;12.70;7.57;;;;;;;;;;5033753;28;20057;-76
2022/03/08 12:58:41;;;;;;;16.95;9.52;;;;;;;;;;5029887;28;20052;-75
2022/03/08 13:01:10;;;;;;;16.83;8.90;;;;;;;;;;5036752;28;20056;-75
2022/03/08 13:03:43;;;;;;;18.60;9.13;;;;;;;;;;5032593;28;20085;-76
2022/03/08 13:06:11;;;;;;;16.83;9.18;;;;;;;;;;5037106;28;20057;-77
2022/03/08 13:08:41;;;;;;;22.45;10.50;;;;;;;;;;5031656;28;20057;-77
2022/03/08 13:11:09;;;;;;;24.27;11.18;;;;;;;;;;5036072;28;20168;-76
2022/03/08 13:13:47;;;;;;;21.33;11.43;;;;;;;;;;5035739;28;20049;-76
2022/03/08 13:16:16;;;;;;;24.77;12.07;;;;;;;;;;5033069;28;20435;-76
2022/03/08 13:18:44;;;;;;;20.60;11.05;;;;;;;;;;5030918;28;20053;-73
2022/03/08 13:21:14;;;;;;;19.80;10.00;;;;;;;;;;5031644;28;20116;-78
2022/03/08 13:23:45;;;;;;;22.30;10.60;;;;;;;;;;5032813;28;20077;-72
2022/03/08 13:26:49;;;;;;;24.48;12.02;;;;;;;;;;5029520;28;20074;-72
2022/03/08 13:29:03;;;;;;;23.27;12.27;;;;;;;;;;5029021;28;20099;-71
2022/03/08 13:31:32;;;;;;;18.85;10.73;;;;;;;;;;5032071;28;20077;-72
2022/03/08 13:34:00;;;;;;;23.05;11.57;;;;;;;;;;5034034;28;20587;-71
2022/03/08 13:36:28;;;;;;;22.33;11.23;;;;;;;;;;5032395;28;20091;-71
2022/03/08 13:38:58;;;;;;;19.30;11.23;;;;;;;;;;5032990;28;20056;-74
2022/03/08 13:41:27;;;;;;;17.73;9.80;;;;;;;;;;5026918;28;20127;-75
2022/03/08 13:43:57;;;;;;;19.05;10.50;;;;;;;;;;5030104;28;20123;-72
2022/03/08 13:46:26;;;;;;;17.65;9.48;;;;;;;;;;5031388;28;20045;-72
2022/03/08 13:48:58;;;;;;;17.25;9.40;;;;;;;;;;5033406;28;20053;-76
2022/03/08 13:51:26;;;;;;;22.08;11.43;;;;;;;;;;5032936;28;20436;-71
2022/03/08 13:53:59;;;;;;;20.35;11.52;;;;;;;;;;5029824;28;20382;-71
2022/03/08 13:56:27;;;;;;;21.50;10.50;;;;;;;;;;5033121;28;20076;-74
2022/03/08 13:58:57;;;;;;;19.15;11.05;;;;;;;;;;5029742;28;20103;-73
2022/03/08 14:01:25;;;;;;;24.40;10.93;;;;;;;;;;5031567;28;20057;-77
2022/03/08 14:03:56;;;;;;;17.75;8.43;;;;;;;;;;5030394;28;20061;-76
2022/03/08 14:06:31;;;;;;;18.42;11.07;;;;;;;;;;5032194;28;20155;-75
2022/03/08 14:09:02;;;;;;;20.42;10.07;;;;;;;;;;5033794;28;20152;-72
2022/03/08 14:11:37;;;;;;;20.08;11.15;;;;;;;;;;5028927;28;20139;-72
2022/03/08 14:14:04;;;;;;;24.75;11.25;;;;;;;;;;5031328;28;20114;-76
2022/03/08 14:16:42;;;;;;;18.33;10.93;;;;;;;;;;5031212;28;20632;-72
2022/03/08 14:19:10;;;;;;;21.48;11.50;;;;;;;;;;5031367;28;20079;-78
2022/03/08 14:21:38;;;;;;;19.75;10.77;;;;;;;;;;5030533;28;20612;-72
2022/03/08 14:24:11;;;;;;;20.25;10.07;;;;;;;;;;5032354;28;20128;-76
2022/03/08 14:26:39;;;;;;;24.65;11.90;;;;;;;;;;5032838;28;20068;-76
2022/03/08 14:29:15;;;;;;;15.70;9.25;;;;;;;;;;5031017;28;20044;-74
2022/03/08 14:31:48;;;;;;;23.35;11.13;;;;;;;;;;5036137;28;20037;-76
2022/03/08 14:34:20;;;;;;;24.20;10.27;;;;;;;;;;5028284;28;20063;-77
2022/03/08 14:36:56;;;;;;;17.50;9.98;;;;;;;;;;5028444;28;20136;-76
2022/03/08 14:39:26;;;;;;;20.42;10.70;;;;;;;;;;5027706;28;20078;-76
2022/03/08 14:41:55;;;;;;;19.80;10.73;;;;;;;;;;5038464;28;20053;-77
2022/03/08 14:44:27;;;;;;;21.27;11.50;;;;;;;;;;5030665;28;20224;-76
2022/03/08 14:46:56;;;;;;;23.08;11.05;;;;;;;;;;5033723;28;20496;-76
2022/03/08 14:49:23;;;;;;;19.85;10.38;;;;;;;;;;5030643;28;20056;-75